Time;durP1;ratioP1;P1;durP2;ratioP2;P2;SDS_P1;SDS_P2;PMS_P1;PMS_P2;Temp;Humidity;BMP_temperature;BMP_pressure;BME280_temperature;BME280_humidity;BME280_pressure;Samples;Min_cycle;Max_cycle;Signal;HPM_P1;HPM_P2
2022/04/16 00:00:39;;;;;;;13.63;11.98;;;;;;;;;;5143652;27;20138;-69
2022/04/16 00:03:05;;;;;;;13.88;11.73;;;;;;;;;;5148392;27;20018;-68
2022/04/16 00:05:31;;;;;;;12.73;11.43;;;;;;;;;;5147540;27;20015;-68
2022/04/16 00:08:08;;;;;;;12.82;11.30;;;;;;;;;;5109045;27;20113;-67
2022/04/16 00:10:34;;;;;;;17.60;11.40;;;;;;;;;;5146102;27;20010;-68
2022/04/16 00:13:00;;;;;;;13.55;11.25;;;;;;;;;;5123564;27;20017;-68
2022/04/16 00:15:26;;;;;;;13.68;12.02;;;;;;;;;;5144290;27;20101;-69
2022/04/16 00:17:51;;;;;;;13.02;11.73;;;;;;;;;;5126875;27;20290;-69
2022/04/16 00:20:17;;;;;;;13.05;11.75;;;;;;;;;;5129438;27;20068;-68
2022/04/16 00:22:42;;;;;;;12.82;11.52;;;;;;;;;;5125633;27;20031;-68
2022/04/16 00:25:07;;;;;;;14.90;12.05;;;;;;;;;;5148008;27;20048;-69
2022/04/16 00:27:34;;;;;;;13.70;12.10;;;;;;;;;;5124531;27;20163;-68
2022/04/16 00:29:59;;;;;;;16.52;12.32;;;;;;;;;;5103877;27;20483;-67
2022/04/16 00:32:25;;;;;;;14.30;12.80;;;;;;;;;;5125623;27;20047;-68
2022/04/16 00:34:50;;;;;;;16.38;12.27;;;;;;;;;;5088180;27;20019;-69
2022/04/16 00:37:16;;;;;;;16.02;12.48;;;;;;;;;;5091091;27;20023;-68
2022/04/16 00:39:42;;;;;;;14.88;12.32;;;;;;;;;;5124259;27;20111;-68
2022/04/16 00:42:07;;;;;;;14.43;12.38;;;;;;;;;;5119628;27;20023;-69
2022/04/16 00:44:33;;;;;;;14.02;12.60;;;;;;;;;;5124074;27;20461;-67
2022/04/16 00:46:59;;;;;;;15.15;12.68;;;;;;;;;;5106001;27;20075;-68
2022/04/16 00:49:24;;;;;;;14.93;12.50;;;;;;;;;;5140864;27;20023;-68
2022/04/16 00:51:50;;;;;;;17.13;12.95;;;;;;;;;;5128521;27;20071;-69
2022/04/16 00:54:16;;;;;;;13.82;12.30;;;;;;;;;;5128995;27;20149;-67
2022/04/16 00:56:42;;;;;;;18.50;13.23;;;;;;;;;;5142294;27;20137;-69
2022/04/16 00:59:07;;;;;;;14.85;13.32;;;;;;;;;;5126170;27;20023;-67
2022/04/16 01:01:33;;;;;;;13.10;11.80;;;;;;;;;;5146527;27;20038;-68
2022/04/16 01:03:59;;;;;;;14.57;11.88;;;;;;;;;;5126627;27;20026;-69
2022/04/16 01:06:34;;;;;;;15.00;12.63;;;;;;;;;;5146128;27;20171;-67
2022/04/16 01:09:00;;;;;;;15.35;13.25;;;;;;;;;;5127078;27;20417;-70
2022/04/16 01:11:25;;;;;;;14.05;12.65;;;;;;;;;;5122031;27;20795;-68
2022/04/16 01:13:51;;;;;;;15.93;12.95;;;;;;;;;;5124218;27;20113;-68
2022/04/16 01:16:16;;;;;;;15.05;13.45;;;;;;;;;;5128007;27;20022;-68
2022/04/16 01:18:47;;;;;;;13.68;12.02;;;;;;;;;;5126284;27;20037;-68
2022/04/16 01:21:17;;;;;;;15.57;12.45;;;;;;;;;;5120558;27;21177;-69
2022/04/16 01:23:42;;;;;;;14.77;13.27;;;;;;;;;;5123636;27;20027;-68
2022/04/16 01:26:08;;;;;;;14.70;13.23;;;;;;;;;;5106023;27;20180;-68
2022/04/16 01:28:33;;;;;;;14.68;13.18;;;;;;;;;;5127916;27;20192;-68
2022/04/16 01:30:58;;;;;;;14.48;12.98;;;;;;;;;;5142999;27;20292;-68
2022/04/16 01:33:24;;;;;;;14.93;13.18;;;;;;;;;;5126630;27;20015;-69
2022/04/16 01:35:53;;;;;;;15.40;13.68;;;;;;;;;;5126816;27;20019;-69
2022/04/16 01:38:18;;;;;;;14.35;12.85;;;;;;;;;;5127287;27;20023;-68
2022/04/16 01:40:45;;;;;;;14.77;13.32;;;;;;;;;;5124918;27;20122;-68
2022/04/16 01:43:10;;;;;;;15.20;13.70;;;;;;;;;;5122322;27;20085;-69
2022/04/16 01:45:35;;;;;;;17.23;13.73;;;;;;;;;;5143271;27;20098;-68
2022/04/16 01:48:01;;;;;;;14.52;12.93;;;;;;;;;;5144242;27;20698;-69
2022/04/16 01:50:26;;;;;;;14.88;13.38;;;;;;;;;;5126529;27;20448;-69
2022/04/16 01:52:52;;;;;;;15.55;14.05;;;;;;;;;;5122498;27;20501;-68
2022/04/16 01:55:17;;;;;;;14.88;13.48;;;;;;;;;;5106134;27;20027;-70
2022/04/16 01:57:43;;;;;;;15.90;14.30;;;;;;;;;;5118684;27;20465;-67
2022/04/16 02:00:14;;;;;;;15.27;13.68;;;;;;;;;;5103828;27;20019;-69
2022/04/16 02:02:39;;;;;;;16.30;14.25;;;;;;;;;;5103968;27;20184;-69
2022/04/16 02:05:05;;;;;;;16.17;14.07;;;;;;;;;;5124090;27;20126;-68
2022/04/16 02:07:30;;;;;;;17.13;14.55;;;;;;;;;;5105695;27;20441;-69
2022/04/16 02:09:56;;;;;;;17.05;14.80;;;;;;;;;;5086622;27;20110;-68
2022/04/16 02:12:21;;;;;;;14.65;13.15;;;;;;;;;;5119127;27;20030;-69
2022/04/16 02:14:47;;;;;;;16.00;14.27;;;;;;;;;;5142434;27;20083;-68
2022/04/16 02:17:12;;;;;;;14.98;12.85;;;;;;;;;;5109965;27;20170;-67
2022/04/16 02:19:38;;;;;;;16.52;14.73;;;;;;;;;;5127134;27;20037;-68
2022/04/16 02:22:03;;;;;;;16.13;14.60;;;;;;;;;;5107754;27;20038;-69
2022/04/16 02:24:29;;;;;;;17.05;15.23;;;;;;;;;;5130963;27;20054;-67
2022/04/16 02:26:58;;;;;;;15.98;14.48;;;;;;;;;;5124654;27;20090;-68
2022/04/16 02:29:23;;;;;;;16.55;14.93;;;;;;;;;;5146892;27;20015;-68
2022/04/16 02:31:48;;;;;;;16.42;14.82;;;;;;;;;;5129907;27;20516;-68
2022/04/16 02:34:13;;;;;;;18.92;14.95;;;;;;;;;;5149685;27;20010;-68
2022/04/16 02:36:40;;;;;;;16.55;14.82;;;;;;;;;;5129941;27;20211;-68
2022/04/16 02:39:05;;;;;;;17.58;15.77;;;;;;;;;;5128950;27;20038;-68
2022/04/16 02:41:31;;;;;;;18.13;15.13;;;;;;;;;;5144935;27;20027;-68
2022/04/16 02:43:58;;;;;;;17.80;15.95;;;;;;;;;;5108853;27;20853;-68
2022/04/16 02:49:07;;;;;;;17.27;15.45;;;;;;;;;;5147174;27;20474;-68
2022/04/16 02:51:32;;;;;;;17.25;15.43;;;;;;;;;;5148642;27;20473;-68
2022/04/16 02:53:58;;;;;;;19.00;16.45;;;;;;;;;;5147446;27;20457;-68
2022/04/16 02:56:23;;;;;;;20.02;15.48;;;;;;;;;;5133103;27;20205;-69
2022/04/16 02:58:49;;;;;;;18.33;16.42;;;;;;;;;;5134673;27;20465;-71
2022/04/16 03:01:14;;;;;;;18.63;16.65;;;;;;;;;;5129839;27;20406;-68
2022/04/16 03:03:39;;;;;;;18.50;16.55;;;;;;;;;;5129125;27;20709;-67
2022/04/16 03:06:05;;;;;;;20.60;17.42;;;;;;;;;;5127711;27;20027;-68
2022/04/16 03:08:30;;;;;;;20.85;17.77;;;;;;;;;;5112872;27;20092;-69
2022/04/16 03:10:55;;;;;;;19.58;17.17;;;;;;;;;;5109262;27;20077;-68
2022/04/16 03:13:20;;;;;;;18.33;16.42;;;;;;;;;;5109041;27;20042;-67
2022/04/16 03:18:29;;;;;;;18.48;16.48;;;;;;;;;;5133476;27;20033;-69
2022/04/16 03:20:57;;;;;;;18.45;16.55;;;;;;;;;;5147244;27;20023;-69
2022/04/16 03:23:22;;;;;;;18.70;16.73;;;;;;;;;;5146518;27;20029;-69
2022/04/16 03:25:50;;;;;;;20.23;17.42;;;;;;;;;;5138010;27;20439;-69
2022/04/16 03:28:16;;;;;;;19.50;17.45;;;;;;;;;;5106452;27;20022;-69
2022/04/16 03:30:41;;;;;;;20.65;17.85;;;;;;;;;;5106016;27;20023;-68
2022/04/16 03:33:08;;;;;;;18.75;16.70;;;;;;;;;;5090732;27;20027;-68
2022/04/16 03:35:34;;;;;;;19.20;17.30;;;;;;;;;;5126482;27;20102;-69
2022/04/16 03:37:59;;;;;;;20.52;18.45;;;;;;;;;;5106261;27;20164;-69
2022/04/16 03:40:26;;;;;;;20.10;17.52;;;;;;;;;;5108355;27;20386;-68
2022/04/16 03:42:52;;;;;;;19.38;17.02;;;;;;;;;;5102256;27;20023;-68
2022/04/16 03:45:20;;;;;;;19.83;17.73;;;;;;;;;;5105793;27;20019;-68
2022/04/16 03:47:46;;;;;;;21.50;18.35;;;;;;;;;;5108686;27;20054;-68
2022/04/16 03:50:12;;;;;;;20.85;17.58;;;;;;;;;;5107719;27;20244;-67
2022/04/16 03:52:41;;;;;;;21.63;18.35;;;;;;;;;;5107796;27;20019;-68
2022/04/16 04:00:34;;;;;;;20.90;18.02;;;;;;;;;;5124344;27;20053;-68
2022/04/16 04:03:00;;;;;;;25.23;19.02;;;;;;;;;;5105518;27;20019;-68
2022/04/16 04:05:25;;;;;;;25.58;20.73;;;;;;;;;;5107724;27;20102;-67
2022/04/16 04:07:51;;;;;;;20.63;18.42;;;;;;;;;;5111022;27;20110;-68
2022/04/16 04:10:16;;;;;;;23.58;19.90;;;;;;;;;;5108079;27;20023;-68
2022/04/16 04:12:41;;;;;;;21.67;19.33;;;;;;;;;;5103762;27;20339;-68
2022/04/16 04:15:07;;;;;;;21.38;19.17;;;;;;;;;;5088682;27;20023;-69
2022/04/16 04:17:33;;;;;;;21.92;18.45;;;;;;;;;;5107917;27;20038;-68
2022/04/16 04:19:58;;;;;;;21.42;18.25;;;;;;;;;;5107082;27;20023;-69
2022/04/16 04:22:23;;;;;;;22.15;19.52;;;;;;;;;;5106855;27;20046;-69
2022/04/16 04:24:48;;;;;;;24.58;19.48;;;;;;;;;;5126089;27;20029;-68
2022/04/16 04:27:14;;;;;;;21.75;19.20;;;;;;;;;;5100008;27;20023;-69
2022/04/16 04:29:39;;;;;;;22.92;19.92;;;;;;;;;;5123461;27;20367;-69
2022/04/16 04:32:05;;;;;;;21.60;18.98;;;;;;;;;;5125137;27;20472;-69
2022/04/16 04:34:31;;;;;;;24.90;20.48;;;;;;;;;;5107403;27;20449;-68
2022/04/16 04:36:56;;;;;;;24.30;20.33;;;;;;;;;;5106466;27;20026;-68
2022/04/16 04:39:21;;;;;;;21.85;18.42;;;;;;;;;;5107619;27;20081;-68
2022/04/16 04:41:47;;;;;;;23.27;19.70;;;;;;;;;;5135935;27;20014;-68
2022/04/16 04:44:12;;;;;;;24.10;20.25;;;;;;;;;;5125192;27;20222;-68
2022/04/16 04:46:38;;;;;;;25.00;20.15;;;;;;;;;;5147617;27;20054;-69
2022/04/16 04:49:03;;;;;;;24.00;20.35;;;;;;;;;;5147029;27;20033;-68
2022/04/16 04:51:29;;;;;;;27.73;20.80;;;;;;;;;;5128994;27;20500;-68
2022/04/16 04:53:57;;;;;;;24.13;19.75;;;;;;;;;;5129386;27;20342;-68
2022/04/16 04:56:23;;;;;;;25.05;20.48;;;;;;;;;;5124053;27;20472;-69
2022/04/16 04:58:48;;;;;;;25.38;20.55;;;;;;;;;;5110391;27;20031;-67
2022/04/16 05:01:13;;;;;;;31.25;21.02;;;;;;;;;;5127033;27;20038;-67
2022/04/16 05:03:38;;;;;;;23.00;20.33;;;;;;;;;;5147668;27;20015;-68
2022/04/16 05:06:06;;;;;;;25.98;19.98;;;;;;;;;;5147127;27;20079;-68
2022/04/16 05:08:32;;;;;;;25.33;20.17;;;;;;;;;;5146648;27;20023;-68
2022/04/16 05:10:57;;;;;;;28.02;20.58;;;;;;;;;;5144999;27;20033;-68
2022/04/16 05:13:23;;;;;;;27.42;21.08;;;;;;;;;;5107538;27;20125;-69
2022/04/16 05:15:48;;;;;;;24.50;21.08;;;;;;;;;;5109479;27;20027;-68
2022/04/16 05:18:13;;;;;;;28.42;22.00;;;;;;;;;;5127371;27;20034;-68
2022/04/16 05:20:38;;;;;;;25.98;20.92;;;;;;;;;;5127027;27;20026;-69
2022/04/16 05:23:04;;;;;;;24.00;19.95;;;;;;;;;;5126957;27;20181;-68
2022/04/16 05:25:29;;;;;;;24.48;20.83;;;;;;;;;;5125163;27;20461;-69
2022/04/16 05:27:54;;;;;;;27.75;20.65;;;;;;;;;;5101741;27;20033;-67
2022/04/16 05:30:25;;;;;;;25.00;20.23;;;;;;;;;;5102385;27;20051;-68
2022/04/16 05:32:50;;;;;;;25.77;20.75;;;;;;;;;;5090399;27;20065;-68
2022/04/16 05:35:16;;;;;;;26.25;20.50;;;;;;;;;;5107251;27;20043;-68
2022/04/16 05:37:42;;;;;;;25.73;20.48;;;;;;;;;;5124738;27;20058;-69
2022/04/16 05:40:08;;;;;;;28.30;21.35;;;;;;;;;;5123659;27;20030;-68
2022/04/16 05:42:38;;;;;;;26.58;20.48;;;;;;;;;;5102217;27;20034;-68
2022/04/16 05:45:03;;;;;;;25.23;20.75;;;;;;;;;;5103487;27;20079;-68
2022/04/16 05:47:28;;;;;;;25.45;21.30;;;;;;;;;;5088184;27;20027;-68
2022/04/16 05:49:54;;;;;;;25.80;21.88;;;;;;;;;;5126339;27;20130;-69
2022/04/16 05:52:19;;;;;;;26.75;20.70;;;;;;;;;;5125534;27;20551;-69
2022/04/16 05:54:45;;;;;;;27.60;21.80;;;;;;;;;;5126698;27;20334;-69
2022/04/16 05:57:10;;;;;;;24.27;19.83;;;;;;;;;;5140507;27;20035;-68
2022/04/16 05:59:35;;;;;;;24.33;20.70;;;;;;;;;;5108205;27;20035;-69
2022/04/16 06:02:02;;;;;;;24.60;20.33;;;;;;;;;;5144100;27;20221;-69
2022/04/16 06:04:27;;;;;;;27.80;21.70;;;;;;;;;;5123145;27;20200;-69
2022/04/16 06:06:52;;;;;;;28.08;21.67;;;;;;;;;;5130513;27;20570;-70
2022/04/16 06:09:18;;;;;;;25.80;22.35;;;;;;;;;;5128422;27;20312;-69
2022/04/16 06:11:43;;;;;;;24.95;21.40;;;;;;;;;;5119618;27;20453;-68
2022/04/16 06:14:09;;;;;;;24.67;21.40;;;;;;;;;;5121238;27;20026;-68
2022/04/16 06:16:34;;;;;;;29.17;21.48;;;;;;;;;;5124232;27;20039;-69
2022/04/16 06:18:59;;;;;;;27.45;22.83;;;;;;;;;;5146951;27;20022;-68
2022/04/16 06:21:24;;;;;;;28.08;23.25;;;;;;;;;;5123267;27;20023;-69
2022/04/16 06:23:51;;;;;;;24.92;21.33;;;;;;;;;;5122616;27;20076;-78
2022/04/16 06:26:17;;;;;;;26.30;21.50;;;;;;;;;;5117824;27;20141;-78
2022/04/16 06:28:42;;;;;;;29.98;23.20;;;;;;;;;;5130916;27;20105;-77
2022/04/16 06:31:09;;;;;;;26.42;22.00;;;;;;;;;;5095670;27;20022;-77
2022/04/16 06:33:34;;;;;;;29.15;23.88;;;;;;;;;;5107748;27;20406;-78
2022/04/16 06:35:59;;;;;;;27.30;22.52;;;;;;;;;;5108598;27;20114;-79
2022/04/16 06:38:24;;;;;;;27.73;22.98;;;;;;;;;;5104284;27;20386;-80
2022/04/16 06:40:52;;;;;;;27.08;23.15;;;;;;;;;;5116548;27;20477;-78
2022/04/16 06:43:17;;;;;;;27.33;22.95;;;;;;;;;;5121458;27;20065;-79
2022/04/16 06:45:43;;;;;;;28.30;23.25;;;;;;;;;;5113906;27;20061;-79
2022/04/16 06:48:08;;;;;;;31.27;24.60;;;;;;;;;;5121969;27;20035;-78
2022/04/16 06:50:34;;;;;;;28.88;23.85;;;;;;;;;;5103800;27;20054;-79
2022/04/16 06:52:59;;;;;;;28.33;23.13;;;;;;;;;;5129347;27;20030;-78
2022/04/16 06:55:24;;;;;;;29.45;24.30;;;;;;;;;;5112005;27;20673;-79
2022/04/16 06:57:49;;;;;;;30.38;23.50;;;;;;;;;;5113263;27;20074;-78
2022/04/16 07:00:15;;;;;;;30.50;24.45;;;;;;;;;;5109771;27;20058;-80
2022/04/16 07:02:41;;;;;;;30.05;24.00;;;;;;;;;;5136048;27;20366;-79
2022/04/16 07:05:07;;;;;;;30.02;25.45;;;;;;;;;;5109174;27;20027;-78
2022/04/16 07:07:32;;;;;;;29.92;24.00;;;;;;;;;;5124674;27;20122;-78
2022/04/16 07:09:58;;;;;;;33.20;24.15;;;;;;;;;;5112725;27;20148;-81
2022/04/16 07:12:23;;;;;;;28.27;22.92;;;;;;;;;;5106170;27;20342;-77
2022/04/16 07:14:48;;;;;;;30.27;23.70;;;;;;;;;;5117389;27;20019;-78
2022/04/16 07:17:14;;;;;;;30.02;23.75;;;;;;;;;;5111031;27;20113;-78
2022/04/16 07:19:39;;;;;;;29.30;23.33;;;;;;;;;;5131069;27;20434;-80
2022/04/16 07:22:05;;;;;;;28.65;23.73;;;;;;;;;;5145136;27;20027;-80
2022/04/16 07:24:30;;;;;;;30.13;25.05;;;;;;;;;;5128584;27;20084;-80
2022/04/16 07:26:55;;;;;;;29.70;24.17;;;;;;;;;;5131230;27;20400;-78
2022/04/16 07:29:24;;;;;;;27.15;24.00;;;;;;;;;;5111406;27;20030;-78
2022/04/16 07:31:50;;;;;;;28.88;23.70;;;;;;;;;;5108206;27;20007;-83
2022/04/16 07:34:16;;;;;;;31.50;25.13;;;;;;;;;;5109329;27;20037;-81
2022/04/16 07:36:42;;;;;;;28.70;23.20;;;;;;;;;;5131647;27;20022;-81
2022/04/16 07:39:07;;;;;;;30.30;23.73;;;;;;;;;;5130678;27;20118;-83
2022/04/16 07:41:33;;;;;;;28.88;23.88;;;;;;;;;;5126070;27;20119;-82
2022/04/16 07:44:03;;;;;;;29.58;23.48;;;;;;;;;;5147879;27;20340;-81
2022/04/16 07:46:28;;;;;;;28.38;23.55;;;;;;;;;;5147875;27;20183;-81
2022/04/16 07:48:54;;;;;;;28.83;24.05;;;;;;;;;;5131029;27;20109;-79
2022/04/16 07:51:19;;;;;;;30.73;24.52;;;;;;;;;;5129564;27;20221;-84
2022/04/16 07:53:44;;;;;;;28.60;23.30;;;;;;;;;;5113968;27;20036;-83
2022/04/16 07:56:10;;;;;;;28.50;23.60;;;;;;;;;;5110818;27;20221;-80
2022/04/16 07:58:35;;;;;;;31.13;25.00;;;;;;;;;;5119157;27;20016;-82
2022/04/16 08:01:00;;;;;;;29.95;23.50;;;;;;;;;;5123130;27;20038;-82
2022/04/16 08:03:26;;;;;;;27.52;23.30;;;;;;;;;;5129137;27;20015;-83
2022/04/16 08:05:51;;;;;;;28.25;23.30;;;;;;;;;;5143136;27;20034;-81
2022/04/16 08:08:16;;;;;;;28.88;24.40;;;;;;;;;;5102104;27;20387;-82
2022/04/16 08:10:42;;;;;;;29.52;24.23;;;;;;;;;;5120711;27;20023;-81
2022/04/16 08:13:08;;;;;;;27.90;23.05;;;;;;;;;;5117409;27;20019;-81
2022/04/16 08:15:34;;;;;;;27.48;23.65;;;;;;;;;;5117050;27;20775;-84
2022/04/16 08:17:59;;;;;;;28.00;23.90;;;;;;;;;;5119960;27;20118;-81
2022/04/16 08:20:24;;;;;;;28.55;24.25;;;;;;;;;;5128286;27;20023;-83
2022/04/16 08:22:50;;;;;;;26.08;23.10;;;;;;;;;;5095128;27;20485;-82
2022/04/16 08:27:45;;;;;;;27.33;23.13;;;;;;;;;;5150897;27;20027;-81
2022/04/16 08:30:10;;;;;;;27.92;23.48;;;;;;;;;;5146624;27;20141;-82
2022/04/16 08:32:36;;;;;;;29.35;23.63;;;;;;;;;;5148027;27;20066;-83
2022/04/16 08:35:02;;;;;;;28.60;22.77;;;;;;;;;;5138143;27;20493;-82
2022/04/16 08:37:27;;;;;;;27.15;22.83;;;;;;;;;;5104584;27;20019;-81
2022/04/16 08:39:52;;;;;;;27.25;22.95;;;;;;;;;;5130697;27;20545;-83
2022/04/16 08:42:18;;;;;;;25.98;21.48;;;;;;;;;;5109759;27;20469;-83
2022/04/16 08:44:43;;;;;;;29.35;22.13;;;;;;;;;;5150744;27;20030;-84
2022/04/16 08:47:09;;;;;;;25.02;21.65;;;;;;;;;;5132497;27;20461;-84
2022/04/16 08:49:34;;;;;;;24.88;21.35;;;;;;;;;;5141464;27;20535;-80
2022/04/16 08:52:01;;;;;;;26.45;21.23;;;;;;;;;;5121533;27;20059;-80
2022/04/16 08:54:27;;;;;;;26.25;22.80;;;;;;;;;;5156038;27;20018;-83
2022/04/16 08:56:52;;;;;;;24.95;20.85;;;;;;;;;;5109249;27;20039;-80
2022/04/16 08:59:18;;;;;;;24.25;21.30;;;;;;;;;;5109991;27;20039;-81
2022/04/16 09:01:44;;;;;;;25.40;21.92;;;;;;;;;;5105629;27;20043;-83
2022/04/16 09:04:19;;;;;;;23.48;20.52;;;;;;;;;;5141134;27;20175;-82
2022/04/16 09:06:54;;;;;;;23.65;20.73;;;;;;;;;;5119746;27;20078;-82
2022/04/16 09:09:22;;;;;;;25.55;21.00;;;;;;;;;;5116087;27;20050;-83
2022/04/16 09:11:50;;;;;;;22.85;20.48;;;;;;;;;;5124720;27;20011;-84
2022/04/16 09:14:16;;;;;;;22.98;19.52;;;;;;;;;;5105969;27;20027;-79
2022/04/16 09:16:42;;;;;;;23.02;20.52;;;;;;;;;;5107567;27;20020;-83
2022/04/16 09:19:11;;;;;;;22.42;20.02;;;;;;;;;;5119923;27;20034;-80
2022/04/16 09:21:37;;;;;;;22.48;20.02;;;;;;;;;;5102918;27;20038;-79
2022/04/16 09:24:02;;;;;;;23.48;20.95;;;;;;;;;;5132107;27;20022;-81
2022/04/16 09:26:34;;;;;;;24.77;19.85;;;;;;;;;;5122604;27;20095;-78
2022/04/16 09:29:14;;;;;;;24.15;19.20;;;;;;;;;;5113295;27;20482;-81
2022/04/16 09:31:40;;;;;;;22.75;18.75;;;;;;;;;;5141511;27;20031;-80
2022/04/16 09:34:24;;;;;;;23.17;18.95;;;;;;;;;;5127964;27;20092;-83
2022/04/16 09:36:49;;;;;;;21.42;19.13;;;;;;;;;;5105609;27;20247;-81
2022/04/16 09:39:15;;;;;;;22.38;19.73;;;;;;;;;;5106692;27;20046;-80
2022/04/16 09:41:42;;;;;;;22.85;20.27;;;;;;;;;;5133801;27;20695;-79
2022/04/16 09:44:25;;;;;;;23.30;18.75;;;;;;;;;;5128194;27;20449;-81
2022/04/16 09:46:51;;;;;;;20.10;18.05;;;;;;;;;;5117765;27;20488;-81
2022/04/16 09:49:17;;;;;;;22.00;18.50;;;;;;;;;;5109208;27;20101;-79
2022/04/16 09:51:43;;;;;;;20.95;18.58;;;;;;;;;;5134998;27;20302;-82
2022/04/16 09:54:11;;;;;;;24.58;19.90;;;;;;;;;;5140516;27;20030;-84
2022/04/16 09:56:37;;;;;;;22.83;19.30;;;;;;;;;;5120186;27;20022;-79
2022/04/16 09:59:04;;;;;;;21.75;19.45;;;;;;;;;;5128695;27;20035;-82
2022/04/16 10:01:30;;;;;;;21.85;19.45;;;;;;;;;;5132744;27;20035;-81
2022/04/16 10:03:56;;;;;;;20.95;18.75;;;;;;;;;;5128069;27;20106;-80
2022/04/16 10:06:23;;;;;;;21.05;18.85;;;;;;;;;;5146321;27;20105;-79
2022/04/16 10:08:49;;;;;;;19.33;17.23;;;;;;;;;;5128791;27;20057;-79
2022/04/16 10:11:20;;;;;;;22.55;18.95;;;;;;;;;;5141641;27;20031;-82
2022/04/16 10:13:56;;;;;;;19.27;17.27;;;;;;;;;;5107514;27;20474;-81
2022/04/16 10:16:25;;;;;;;19.90;17.77;;;;;;;;;;5125989;27;20019;-82
2022/04/16 10:18:50;;;;;;;19.10;16.95;;;;;;;;;;5131111;27;20022;-80
2022/04/16 10:21:16;;;;;;;17.63;15.57;;;;;;;;;;5147222;27;20163;-81
2022/04/16 10:23:42;;;;;;;17.70;15.80;;;;;;;;;;5125266;27;20023;-80
2022/04/16 10:26:10;;;;;;;19.05;15.82;;;;;;;;;;5123781;27;20298;-82
2022/04/16 10:28:47;;;;;;;18.52;16.00;;;;;;;;;;5124349;27;20548;-83
2022/04/16 10:31:19;;;;;;;19.42;16.95;;;;;;;;;;5118606;27;20051;-80
2022/04/16 10:33:54;;;;;;;17.25;15.32;;;;;;;;;;5105432;27;20020;-80
2022/04/16 10:36:24;;;;;;;17.52;14.25;;;;;;;;;;5110082;27;20106;-81
2022/04/16 10:38:51;;;;;;;15.43;13.65;;;;;;;;;;5114494;27;20136;-82
2022/04/16 10:41:21;;;;;;;17.80;14.90;;;;;;;;;;5118747;27;20019;-82
2022/04/16 10:43:59;;;;;;;14.70;13.18;;;;;;;;;;5115184;27;20142;-80
2022/04/16 10:46:46;;;;;;;15.20;13.70;;;;;;;;;;5099979;27;20096;-83
2022/04/16 10:49:12;;;;;;;16.83;14.60;;;;;;;;;;5131219;27;20099;-80
2022/04/16 10:51:37;;;;;;;14.18;12.52;;;;;;;;;;5094924;27;20454;-80
2022/04/16 10:54:09;;;;;;;13.77;12.38;;;;;;;;;;5134754;27;20043;-80
2022/04/16 10:56:39;;;;;;;13.18;11.77;;;;;;;;;;5121779;27;20049;-80
2022/04/16 10:59:05;;;;;;;12.35;11.15;;;;;;;;;;5112473;27;20533;-81
2022/04/16 11:01:30;;;;;;;13.45;12.05;;;;;;;;;;5103194;27;20121;-78
2022/04/16 11:03:56;;;;;;;12.57;11.15;;;;;;;;;;5109569;27;20031;-77
2022/04/16 11:06:31;;;;;;;14.25;12.75;;;;;;;;;;5116821;27;20056;-78
2022/04/16 11:08:57;;;;;;;14.07;12.57;;;;;;;;;;5121838;27;20014;-80
2022/04/16 11:11:32;;;;;;;13.23;11.82;;;;;;;;;;5116161;27;20006;-79
2022/04/16 11:13:59;;;;;;;12.63;11.23;;;;;;;;;;5131839;27;20015;-81
2022/04/16 11:16:26;;;;;;;11.23;10.02;;;;;;;;;;5121315;27;20436;-80
2022/04/16 11:18:51;;;;;;;12.65;11.25;;;;;;;;;;5113969;27;20042;-78
2022/04/16 11:21:18;;;;;;;16.88;12.02;;;;;;;;;;5102525;27;20054;-80
2022/04/16 11:23:44;;;;;;;12.57;11.27;;;;;;;;;;5119137;27;20028;-79
2022/04/16 11:34:30;;;;;;;12.10;10.93;;;;;;;;;;5134246;27;20145;-82
2022/04/16 11:36:56;;;;;;;12.68;11.48;;;;;;;;;;5098241;27;20050;-79
2022/04/16 11:39:21;;;;;;;16.90;12.45;;;;;;;;;;5140546;27;20434;-78
2022/04/16 11:41:48;;;;;;;13.25;11.95;;;;;;;;;;5107657;27;20026;-80
2022/04/16 11:44:14;;;;;;;13.05;11.15;;;;;;;;;;5114332;27;20381;-79
2022/04/16 11:46:41;;;;;;;18.50;12.05;;;;;;;;;;5114127;27;20033;-80
2022/04/16 11:49:06;;;;;;;13.07;11.77;;;;;;;;;;5122927;27;20022;-81
2022/04/16 11:51:36;;;;;;;13.25;11.20;;;;;;;;;;5098529;27;20037;-83
2022/04/16 11:54:02;;;;;;;12.25;10.95;;;;;;;;;;5142474;27;20484;-87
2022/04/16 11:56:31;;;;;;;12.88;11.45;;;;;;;;;;5120047;27;20061;-88
2022/04/16 11:58:56;;;;;;;12.05;10.85;;;;;;;;;;5111608;27;20253;-86
2022/04/16 12:01:22;;;;;;;11.68;10.48;;;;;;;;;;5123312;27;20146;-83
2022/04/16 12:03:48;;;;;;;11.98;10.77;;;;;;;;;;5125973;27;20023;-86
2022/04/16 12:06:14;;;;;;;11.80;10.60;;;;;;;;;;5140041;27;20333;-86
2022/04/16 12:08:40;;;;;;;12.23;10.60;;;;;;;;;;5128546;27;20011;-84
2022/04/16 12:11:06;;;;;;;11.82;10.63;;;;;;;;;;5107031;27;20026;-82
2022/04/16 12:13:40;;;;;;;11.10;10.00;;;;;;;;;;5101581;27;20539;-78
2022/04/16 12:16:07;;;;;;;10.63;9.52;;;;;;;;;;5124020;27;20475;-79
2022/04/16 12:18:36;;;;;;;10.45;9.40;;;;;;;;;;5119707;27;20361;-81
2022/04/16 12:21:07;;;;;;;10.70;9.68;;;;;;;;;;5108174;27;20091;-84
2022/04/16 12:23:41;;;;;;;10.57;9.48;;;;;;;;;;5111624;27;20015;-85
2022/04/16 12:26:10;;;;;;;11.25;10.15;;;;;;;;;;5124384;27;20035;-80
2022/04/16 12:28:37;;;;;;;12.95;11.65;;;;;;;;;;5106354;27;20043;-79
2022/04/16 12:31:02;;;;;;;11.90;10.75;;;;;;;;;;5124329;27;20023;-81
2022/04/16 12:33:27;;;;;;;11.38;10.18;;;;;;;;;;5091170;27;20424;-84
2022/04/16 12:35:56;;;;;;;9.82;8.82;;;;;;;;;;5106530;27;20432;-80
2022/04/16 12:38:21;;;;;;;9.45;8.55;;;;;;;;;;5107866;27;20031;-78
2022/04/16 12:40:47;;;;;;;9.32;8.43;;;;;;;;;;5104899;27;20031;-83
2022/04/16 12:43:16;;;;;;;9.45;8.45;;;;;;;;;;5105481;27;20468;-79
2022/04/16 12:45:41;;;;;;;9.65;8.65;;;;;;;;;;5124285;27;20434;-85
2022/04/16 12:48:06;;;;;;;9.85;8.88;;;;;;;;;;5128470;27;20102;-85
2022/04/16 12:50:35;;;;;;;10.30;9.30;;;;;;;;;;5135756;27;20018;-80
2022/04/16 12:53:01;;;;;;;9.35;8.45;;;;;;;;;;5126769;27;20045;-80
2022/04/16 12:55:28;;;;;;;8.82;7.90;;;;;;;;;;5144401;27;20031;-81
2022/04/16 12:57:54;;;;;;;10.07;8.20;;;;;;;;;;5121166;27;20027;-81
2022/04/16 13:00:19;;;;;;;9.65;8.65;;;;;;;;;;5114617;27;20042;-86
2022/04/16 13:02:45;;;;;;;9.45;8.55;;;;;;;;;;5101031;27;20130;-82
2022/04/16 13:05:19;;;;;;;9.65;8.75;;;;;;;;;;5119267;27;20368;-83
2022/04/16 13:07:45;;;;;;;9.10;8.20;;;;;;;;;;5117403;27;20026;-80
2022/04/16 13:10:11;;;;;;;8.23;7.30;;;;;;;;;;5112847;27;20180;-82
2022/04/16 13:12:39;;;;;;;7.93;7.22;;;;;;;;;;5123577;27;20014;-82
2022/04/16 13:15:05;;;;;;;8.77;7.97;;;;;;;;;;5113174;27;20101;-81
2022/04/16 13:17:30;;;;;;;10.45;8.57;;;;;;;;;;5118751;27;20220;-83
2022/04/16 13:19:55;;;;;;;9.07;8.15;;;;;;;;;;5119768;27;20445;-82
2022/04/16 13:22:21;;;;;;;7.43;6.63;;;;;;;;;;5115658;27;20031;-79
2022/04/16 13:24:46;;;;;;;8.63;6.93;;;;;;;;;;5104916;27;20026;-78
2022/04/16 13:27:11;;;;;;;8.45;7.55;;;;;;;;;;5125161;27;20038;-79
2022/04/16 13:29:38;;;;;;;7.70;7.00;;;;;;;;;;5121645;27;20453;-80
2022/04/16 13:32:04;;;;;;;8.00;7.30;;;;;;;;;;5120332;27;20049;-78
2022/04/16 13:34:30;;;;;;;7.30;6.60;;;;;;;;;;5125221;27;20003;-80
2022/04/16 13:36:55;;;;;;;6.97;6.30;;;;;;;;;;5143838;27;20018;-83
2022/04/16 13:42:04;;;;;;;7.70;6.68;;;;;;;;;;5125662;27;20075;-81
2022/04/16 13:44:29;;;;;;;6.78;6.18;;;;;;;;;;5131531;27;20060;-81
2022/04/16 13:46:55;;;;;;;6.13;5.53;;;;;;;;;;5114518;27;20548;-80
2022/04/16 13:49:20;;;;;;;6.90;6.30;;;;;;;;;;5115832;27;20076;-83
2022/04/16 13:51:46;;;;;;;7.13;6.43;;;;;;;;;;5107427;27;20019;-77
2022/04/16 13:54:11;;;;;;;8.00;7.20;;;;;;;;;;5144902;27;20018;-77
2022/04/16 13:56:40;;;;;;;7.40;6.70;;;;;;;;;;5116081;27;20057;-80
2022/04/16 13:59:06;;;;;;;6.80;6.20;;;;;;;;;;5119650;27;20284;-69
2022/04/16 14:01:33;;;;;;;7.03;6.32;;;;;;;;;;5122182;27;20137;-73
2022/04/16 14:03:59;;;;;;;6.50;5.63;;;;;;;;;;5122717;27;20191;-72
2022/04/16 14:06:24;;;;;;;6.68;6.07;;;;;;;;;;5123180;27;20064;-72
2022/04/16 14:08:50;;;;;;;5.65;5.10;;;;;;;;;;5120329;27;20091;-70
2022/04/16 14:11:15;;;;;;;7.07;5.90;;;;;;;;;;5095126;27;20091;-73
2022/04/16 14:13:42;;;;;;;6.60;6.00;;;;;;;;;;5100586;27;20015;-72
2022/04/16 14:16:10;;;;;;;6.60;5.95;;;;;;;;;;5097855;27;20019;-72
2022/04/16 14:18:35;;;;;;;6.80;6.15;;;;;;;;;;5101548;27;20051;-70
2022/04/16 14:21:01;;;;;;;6.25;5.28;;;;;;;;;;5103392;27;20088;-70
2022/04/16 14:23:30;;;;;;;6.43;5.13;;;;;;;;;;5123086;27;20027;-72
2022/04/16 14:25:56;;;;;;;7.32;6.40;;;;;;;;;;5121263;27;20022;-71
2022/04/16 14:28:21;;;;;;;6.15;5.55;;;;;;;;;;5123819;27;20459;-72
2022/04/16 14:30:46;;;;;;;6.97;5.20;;;;;;;;;;5124046;27;20024;-72
2022/04/16 14:33:12;;;;;;;6.38;5.78;;;;;;;;;;5086617;27;20080;-73
2022/04/16 14:35:38;;;;;;;7.30;6.55;;;;;;;;;;5121696;27;20029;-76
2022/04/16 14:38:10;;;;;;;6.25;5.68;;;;;;;;;;5112034;27;20039;-73
2022/04/16 14:40:36;;;;;;;6.75;5.72;;;;;;;;;;5101530;27;20023;-74